sensor_id;sensor_type;location;lat;lon;timestamp;P1;durP1;ratioP1;P2;durP2;ratioP2
3085;SDS011;52812;48.960;9.108;2023-05-14T00:01:14;8.50;;;7.07;;
3085;SDS011;52812;48.960;9.108;2023-05-14T00:03:40;8.40;;;7.10;;
3085;SDS011;52812;48.960;9.108;2023-05-14T00:06:06;11.50;;;7.97;;
3085;SDS011;52812;48.960;9.108;2023-05-14T00:08:32;10.80;;;7.73;;
3085;SDS011;52812;48.960;9.108;2023-05-14T00:10:57;8.10;;;6.97;;
3085;SDS011;52812;48.960;9.108;2023-05-14T00:13:24;8.57;;;6.50;;
3085;SDS011;52812;48.960;9.108;2023-05-14T00:15:49;8.40;;;6.83;;
3085;SDS011;52812;48.960;9.108;2023-05-14T00:18:15;9.47;;;7.40;;
3085;SDS011;52812;48.960;9.108;2023-05-14T00:20:40;9.60;;;7.30;;
3085;SDS011;52812;48.960;9.108;2023-05-14T00:23:06;8.90;;;7.17;;
3085;SDS011;52812;48.960;9.108;2023-05-14T00:25:32;11.60;;;7.40;;
3085;SDS011;52812;48.960;9.108;2023-05-14T00:27:57;8.60;;;7.60;;
3085;SDS011;52812;48.960;9.108;2023-05-14T00:30:23;12.00;;;7.37;;
3085;SDS011;52812;48.960;9.108;2023-05-14T00:32:48;10.40;;;8.10;;
3085;SDS011;52812;48.960;9.108;2023-05-14T00:35:14;13.20;;;8.50;;
3085;SDS011;52812;48.960;9.108;2023-05-14T00:37:39;11.60;;;8.53;;
3085;SDS011;52812;48.960;9.108;2023-05-14T00:40:05;9.90;;;7.50;;
3085;SDS011;52812;48.960;9.108;2023-05-14T00:42:32;10.90;;;7.80;;
3085;SDS011;52812;48.960;9.108;2023-05-14T00:44:58;10.70;;;7.90;;
3085;SDS011;52812;48.960;9.108;2023-05-14T00:47:24;10.40;;;7.20;;
3085;SDS011;52812;48.960;9.108;2023-05-14T00:49:50;10.37;;;8.23;;
3085;SDS011;52812;48.960;9.108;2023-05-14T00:52:15;11.40;;;7.57;;
3085;SDS011;52812;48.960;9.108;2023-05-14T00:54:42;10.03;;;7.30;;
3085;SDS011;52812;48.960;9.108;2023-05-14T00:57:10;9.90;;;8.17;;
3085;SDS011;52812;48.960;9.108;2023-05-14T00:59:36;12.10;;;8.20;;
3085;SDS011;52812;48.960;9.108;2023-05-14T01:02:01;9.93;;;8.00;;
3085;SDS011;52812;48.960;9.108;2023-05-14T01:04:27;10.27;;;7.60;;
3085;SDS011;52812;48.960;9.108;2023-05-14T01:06:58;10.80;;;7.67;;
3085;SDS011;52812;48.960;9.108;2023-05-14T01:10:02;9.60;;;7.13;;
3085;SDS011;52812;48.960;9.108;2023-05-14T01:15:32;9.00;;;6.73;;
3085;SDS011;52812;48.960;9.108;2023-05-14T01:18:03;9.47;;;7.03;;
3085;SDS011;52812;48.960;9.108;2023-05-14T01:20:31;11.67;;;6.97;;
3085;SDS011;52812;48.960;9.108;2023-05-14T01:22:57;10.03;;;7.10;;
3085;SDS011;52812;48.960;9.108;2023-05-14T01:25:23;8.93;;;6.63;;
3085;SDS011;52812;48.960;9.108;2023-05-14T01:27:53;10.13;;;7.03;;
3085;SDS011;52812;48.960;9.108;2023-05-14T01:33:32;10.50;;;7.33;;
3085;SDS011;52812;48.960;9.108;2023-05-14T01:35:59;9.33;;;6.97;;
3085;SDS011;52812;48.960;9.108;2023-05-14T01:38:25;9.13;;;7.00;;
3085;SDS011;52812;48.960;9.108;2023-05-14T01:40:54;8.67;;;7.00;;
3085;SDS011;52812;48.960;9.108;2023-05-14T01:43:21;9.70;;;7.47;;
3085;SDS011;52812;48.960;9.108;2023-05-14T01:45:47;10.30;;;7.33;;
3085;SDS011;52812;48.960;9.108;2023-05-14T01:48:13;12.60;;;7.87;;
3085;SDS011;52812;48.960;9.108;2023-05-14T01:50:39;9.67;;;7.13;;
3085;SDS011;52812;48.960;9.108;2023-05-14T01:53:05;10.77;;;7.33;;
3085;SDS011;52812;48.960;9.108;2023-05-14T01:55:30;11.73;;;7.43;;
3085;SDS011;52812;48.960;9.108;2023-05-14T01:57:56;9.70;;;7.20;;
3085;SDS011;52812;48.960;9.108;2023-05-14T02:00:22;9.20;;;6.77;;
3085;SDS011;52812;48.960;9.108;2023-05-14T02:02:51;10.50;;;7.10;;
3085;SDS011;52812;48.960;9.108;2023-05-14T02:05:16;9.50;;;7.03;;
3085;SDS011;52812;48.960;9.108;2023-05-14T02:07:42;11.63;;;7.40;;
3085;SDS011;52812;48.960;9.108;2023-05-14T02:10:08;9.70;;;7.10;;
3085;SDS011;52812;48.960;9.108;2023-05-14T02:12:34;10.27;;;6.67;;
3085;SDS011;52812;48.960;9.108;2023-05-14T02:15:00;9.70;;;6.97;;
3085;SDS011;52812;48.960;9.108;2023-05-14T02:17:26;9.33;;;7.17;;
3085;SDS011;52812;48.960;9.108;2023-05-14T02:19:52;8.77;;;6.40;;
3085;SDS011;52812;48.960;9.108;2023-05-14T02:22:17;10.07;;;6.50;;
3085;SDS011;52812;48.960;9.108;2023-05-14T02:24:43;8.67;;;6.60;;
3085;SDS011;52812;48.960;9.108;2023-05-14T02:27:08;10.70;;;6.70;;
3085;SDS011;52812;48.960;9.108;2023-05-14T02:29:36;10.30;;;6.40;;
3085;SDS011;52812;48.960;9.108;2023-05-14T02:32:02;9.03;;;6.80;;
3085;SDS011;52812;48.960;9.108;2023-05-14T02:34:27;10.60;;;7.27;;
3085;SDS011;52812;48.960;9.108;2023-05-14T02:36:53;10.40;;;6.47;;
3085;SDS011;52812;48.960;9.108;2023-05-14T02:39:18;11.30;;;7.70;;
3085;SDS011;52812;48.960;9.108;2023-05-14T02:41:44;11.43;;;7.33;;
3085;SDS011;52812;48.960;9.108;2023-05-14T02:44:09;12.80;;;7.70;;
3085;SDS011;52812;48.960;9.108;2023-05-14T02:46:35;11.63;;;8.07;;
3085;SDS011;52812;48.960;9.108;2023-05-14T02:49:01;12.93;;;7.50;;
3085;SDS011;52812;48.960;9.108;2023-05-14T02:51:27;10.00;;;7.07;;
3085;SDS011;52812;48.960;9.108;2023-05-14T02:53:52;9.70;;;6.97;;
3085;SDS011;52812;48.960;9.108;2023-05-14T02:56:18;9.60;;;6.60;;
3085;SDS011;52812;48.960;9.108;2023-05-14T02:58:43;11.03;;;6.67;;
3085;SDS011;52812;48.960;9.108;2023-05-14T03:01:09;9.97;;;6.60;;
3085;SDS011;52812;48.960;9.108;2023-05-14T03:03:35;9.43;;;6.60;;
3085;SDS011;52812;48.960;9.108;2023-05-14T03:06:00;10.00;;;6.93;;
3085;SDS011;52812;48.960;9.108;2023-05-14T03:08:26;9.57;;;6.50;;
3085;SDS011;52812;48.960;9.108;2023-05-14T03:10:51;10.53;;;6.80;;
3085;SDS011;52812;48.960;9.108;2023-05-14T03:13:17;9.17;;;6.30;;
3085;SDS011;52812;48.960;9.108;2023-05-14T03:15:44;8.90;;;6.60;;
3085;SDS011;52812;48.960;9.108;2023-05-14T03:18:11;8.37;;;6.20;;
3085;SDS011;52812;48.960;9.108;2023-05-14T03:20:37;7.93;;;5.77;;
3085;SDS011;52812;48.960;9.108;2023-05-14T03:23:02;10.60;;;6.47;;
3085;SDS011;52812;48.960;9.108;2023-05-14T03:25:28;9.17;;;6.70;;
3085;SDS011;52812;48.960;9.108;2023-05-14T03:27:54;12.10;;;6.77;;
3085;SDS011;52812;48.960;9.108;2023-05-14T03:30:19;9.25;;;6.60;;
3085;SDS011;52812;48.960;9.108;2023-05-14T03:32:45;9.87;;;7.00;;
3085;SDS011;52812;48.960;9.108;2023-05-14T03:35:12;9.77;;;6.70;;
3085;SDS011;52812;48.960;9.108;2023-05-14T03:37:37;9.37;;;6.90;;
3085;SDS011;52812;48.960;9.108;2023-05-14T03:40:03;10.00;;;6.67;;
3085;SDS011;52812;48.960;9.108;2023-05-14T03:42:29;9.47;;;6.43;;
3085;SDS011;52812;48.960;9.108;2023-05-14T03:44:54;10.20;;;6.70;;
3085;SDS011;52812;48.960;9.108;2023-05-14T03:47:20;13.53;;;6.43;;
3085;SDS011;52812;48.960;9.108;2023-05-14T03:49:46;10.17;;;7.10;;
3085;SDS011;52812;48.960;9.108;2023-05-14T03:52:11;11.13;;;7.00;;
3085;SDS011;52812;48.960;9.108;2023-05-14T03:54:37;10.60;;;6.90;;
3085;SDS011;52812;48.960;9.108;2023-05-14T03:57:02;10.37;;;6.70;;
3085;SDS011;52812;48.960;9.108;2023-05-14T03:59:28;9.83;;;6.60;;
3085;SDS011;52812;48.960;9.108;2023-05-14T04:01:54;10.53;;;6.97;;
3085;SDS011;52812;48.960;9.108;2023-05-14T04:04:20;7.50;;;6.17;;
3085;SDS011;52812;48.960;9.108;2023-05-14T04:06:45;10.20;;;6.90;;
3085;SDS011;52812;48.960;9.108;2023-05-14T04:09:11;9.50;;;6.63;;
3085;SDS011;52812;48.960;9.108;2023-05-14T04:11:36;9.00;;;6.23;;
3085;SDS011;52812;48.960;9.108;2023-05-14T04:14:02;9.30;;;6.57;;
3085;SDS011;52812;48.960;9.108;2023-05-14T04:16:27;9.10;;;6.17;;
3085;SDS011;52812;48.960;9.108;2023-05-14T04:18:53;8.40;;;6.30;;
3085;SDS011;52812;48.960;9.108;2023-05-14T04:21:18;11.77;;;6.60;;
3085;SDS011;52812;48.960;9.108;2023-05-14T04:23:44;9.33;;;6.20;;
3085;SDS011;52812;48.960;9.108;2023-05-14T04:26:10;9.30;;;5.87;;
3085;SDS011;52812;48.960;9.108;2023-05-14T04:28:35;8.80;;;6.13;;
3085;SDS011;52812;48.960;9.108;2023-05-14T04:31:01;9.50;;;6.67;;
3085;SDS011;52812;48.960;9.108;2023-05-14T04:33:26;11.03;;;7.17;;
3085;SDS011;52812;48.960;9.108;2023-05-14T04:35:52;10.17;;;6.80;;
3085;SDS011;52812;48.960;9.108;2023-05-14T04:38:17;11.30;;;6.90;;
3085;SDS011;52812;48.960;9.108;2023-05-14T04:40:43;8.90;;;6.67;;
3085;SDS011;52812;48.960;9.108;2023-05-14T04:43:08;9.60;;;6.77;;
3085;SDS011;52812;48.960;9.108;2023-05-14T04:45:34;10.03;;;6.93;;
3085;SDS011;52812;48.960;9.108;2023-05-14T04:48:01;9.80;;;6.23;;
3085;SDS011;52812;48.960;9.108;2023-05-14T04:50:27;10.07;;;6.60;;
3085;SDS011;52812;48.960;9.108;2023-05-14T04:52:53;9.17;;;6.47;;
3085;SDS011;52812;48.960;9.108;2023-05-14T04:55:19;9.30;;;6.57;;
3085;SDS011;52812;48.960;9.108;2023-05-14T04:57:45;10.40;;;7.13;;
3085;SDS011;52812;48.960;9.108;2023-05-14T05:00:11;7.73;;;5.97;;
3085;SDS011;52812;48.960;9.108;2023-05-14T05:02:37;10.40;;;6.90;;
3085;SDS011;52812;48.960;9.108;2023-05-14T05:05:03;10.40;;;6.83;;
3085;SDS011;52812;48.960;9.108;2023-05-14T05:07:28;10.97;;;7.20;;
3085;SDS011;52812;48.960;9.108;2023-05-14T05:09:54;9.87;;;6.83;;
3085;SDS011;52812;48.960;9.108;2023-05-14T05:12:19;10.73;;;7.30;;
3085;SDS011;52812;48.960;9.108;2023-05-14T05:14:45;7.70;;;5.97;;
3085;SDS011;52812;48.960;9.108;2023-05-14T05:17:11;8.33;;;6.57;;
3085;SDS011;52812;48.960;9.108;2023-05-14T05:19:36;8.80;;;6.70;;
3085;SDS011;52812;48.960;9.108;2023-05-14T05:22:02;10.10;;;7.30;;
3085;SDS011;52812;48.960;9.108;2023-05-14T05:24:27;9.43;;;6.83;;
3085;SDS011;52812;48.960;9.108;2023-05-14T05:26:53;10.23;;;7.13;;
3085;SDS011;52812;48.960;9.108;2023-05-14T05:29:19;8.90;;;6.33;;
3085;SDS011;52812;48.960;9.108;2023-05-14T05:31:46;8.80;;;6.77;;
3085;SDS011;52812;48.960;9.108;2023-05-14T05:34:12;12.10;;;7.30;;
3085;SDS011;52812;48.960;9.108;2023-05-14T05:36:38;8.70;;;6.50;;
3085;SDS011;52812;48.960;9.108;2023-05-14T05:39:03;10.33;;;6.70;;
3085;SDS011;52812;48.960;9.108;2023-05-14T05:41:29;9.10;;;6.70;;
3085;SDS011;52812;48.960;9.108;2023-05-14T05:43:54;9.57;;;7.10;;
3085;SDS011;52812;48.960;9.108;2023-05-14T05:46:20;10.20;;;6.40;;
3085;SDS011;52812;48.960;9.108;2023-05-14T05:48:46;10.17;;;7.00;;
3085;SDS011;52812;48.960;9.108;2023-05-14T05:51:11;8.47;;;6.30;;
3085;SDS011;52812;48.960;9.108;2023-05-14T05:53:37;8.20;;;5.90;;
3085;SDS011;52812;48.960;9.108;2023-05-14T05:56:02;8.73;;;5.90;;
3085;SDS011;52812;48.960;9.108;2023-05-14T05:58:28;8.40;;;6.10;;
3085;SDS011;52812;48.960;9.108;2023-05-14T06:00:54;10.30;;;6.80;;
3085;SDS011;52812;48.960;9.108;2023-05-14T06:03:21;8.87;;;6.50;;
3085;SDS011;52812;48.960;9.108;2023-05-14T06:05:47;10.00;;;7.27;;
3085;SDS011;52812;48.960;9.108;2023-05-14T06:08:13;9.13;;;6.87;;
3085;SDS011;52812;48.960;9.108;2023-05-14T06:10:38;11.57;;;6.63;;
3085;SDS011;52812;48.960;9.108;2023-05-14T06:13:04;9.33;;;6.53;;
3085;SDS011;52812;48.960;9.108;2023-05-14T06:15:30;9.10;;;6.57;;
3085;SDS011;52812;48.960;9.108;2023-05-14T06:17:56;9.23;;;6.30;;
3085;SDS011;52812;48.960;9.108;2023-05-14T06:20:22;10.60;;;6.47;;
3085;SDS011;52812;48.960;9.108;2023-05-14T06:22:47;7.63;;;6.17;;
3085;SDS011;52812;48.960;9.108;2023-05-14T06:25:13;7.97;;;6.10;;
3085;SDS011;52812;48.960;9.108;2023-05-14T06:27:39;8.27;;;6.60;;
3085;SDS011;52812;48.960;9.108;2023-05-14T06:30:05;8.50;;;6.23;;
3085;SDS011;52812;48.960;9.108;2023-05-14T06:32:31;8.73;;;6.30;;
3085;SDS011;52812;48.960;9.108;2023-05-14T06:34:56;10.40;;;7.47;;
3085;SDS011;52812;48.960;9.108;2023-05-14T06:37:22;8.70;;;6.13;;
3085;SDS011;52812;48.960;9.108;2023-05-14T06:39:48;9.63;;;6.60;;
3085;SDS011;52812;48.960;9.108;2023-05-14T06:42:16;8.17;;;6.80;;
3085;SDS011;52812;48.960;9.108;2023-05-14T06:44:42;9.10;;;6.73;;
3085;SDS011;52812;48.960;9.108;2023-05-14T06:47:09;8.77;;;6.30;;
3085;SDS011;52812;48.960;9.108;2023-05-14T06:49:35;8.10;;;6.07;;
3085;SDS011;52812;48.960;9.108;2023-05-14T06:52:01;8.83;;;6.60;;
3085;SDS011;52812;48.960;9.108;2023-05-14T06:54:27;6.93;;;5.60;;
3085;SDS011;52812;48.960;9.108;2023-05-14T06:56:53;7.43;;;5.90;;
3085;SDS011;52812;48.960;9.108;2023-05-14T06:59:19;6.40;;;5.37;;
3085;SDS011;52812;48.960;9.108;2023-05-14T07:01:45;6.87;;;5.80;;
3085;SDS011;52812;48.960;9.108;2023-05-14T07:04:10;6.60;;;5.90;;
3085;SDS011;52812;48.960;9.108;2023-05-14T07:06:36;7.83;;;5.90;;
3085;SDS011;52812;48.960;9.108;2023-05-14T07:09:02;7.87;;;6.30;;
3085;SDS011;52812;48.960;9.108;2023-05-14T07:11:28;8.30;;;6.30;;
3085;SDS011;52812;48.960;9.108;2023-05-14T07:13:53;7.33;;;6.13;;
3085;SDS011;52812;48.960;9.108;2023-05-14T07:16:19;7.03;;;5.83;;
3085;SDS011;52812;48.960;9.108;2023-05-14T07:18:45;8.90;;;6.70;;
3085;SDS011;52812;48.960;9.108;2023-05-14T07:21:10;7.70;;;6.17;;
3085;SDS011;52812;48.960;9.108;2023-05-14T07:23:36;7.40;;;6.13;;
3085;SDS011;52812;48.960;9.108;2023-05-14T07:26:03;8.73;;;6.27;;
3085;SDS011;52812;48.960;9.108;2023-05-14T07:28:29;8.30;;;6.70;;
3085;SDS011;52812;48.960;9.108;2023-05-14T07:30:55;7.67;;;6.50;;
3085;SDS011;52812;48.960;9.108;2023-05-14T07:33:21;8.50;;;6.30;;
3085;SDS011;52812;48.960;9.108;2023-05-14T07:35:47;8.30;;;6.33;;
3085;SDS011;52812;48.960;9.108;2023-05-14T07:38:12;8.60;;;6.27;;
3085;SDS011;52812;48.960;9.108;2023-05-14T07:40:38;10.17;;;6.63;;
3085;SDS011;52812;48.960;9.108;2023-05-14T07:43:04;6.80;;;6.10;;
3085;SDS011;52812;48.960;9.108;2023-05-14T07:45:29;8.03;;;6.77;;
3085;SDS011;52812;48.960;9.108;2023-05-14T07:47:55;7.70;;;6.43;;
3085;SDS011;52812;48.960;9.108;2023-05-14T07:50:21;8.80;;;6.77;;
3085;SDS011;52812;48.960;9.108;2023-05-14T07:52:47;7.50;;;6.03;;
3085;SDS011;52812;48.960;9.108;2023-05-14T07:55:12;8.90;;;6.50;;
3085;SDS011;52812;48.960;9.108;2023-05-14T07:57:38;8.13;;;7.13;;
3085;SDS011;52812;48.960;9.108;2023-05-14T08:00:04;7.97;;;6.50;;
3085;SDS011;52812;48.960;9.108;2023-05-14T08:02:33;7.60;;;6.13;;
3085;SDS011;52812;48.960;9.108;2023-05-14T08:04:59;7.50;;;6.47;;
3085;SDS011;52812;48.960;9.108;2023-05-14T08:07:25;6.73;;;5.93;;
3085;SDS011;52812;48.960;9.108;2023-05-14T08:09:53;7.67;;;6.57;;
3085;SDS011;52812;48.960;9.108;2023-05-14T08:12:18;9.00;;;7.00;;
3085;SDS011;52812;48.960;9.108;2023-05-14T08:14:44;8.70;;;6.33;;
3085;SDS011;52812;48.960;9.108;2023-05-14T08:17:10;7.70;;;6.63;;
3085;SDS011;52812;48.960;9.108;2023-05-14T08:19:36;7.13;;;6.00;;
3085;SDS011;52812;48.960;9.108;2023-05-14T08:22:01;7.63;;;6.83;;
3085;SDS011;52812;48.960;9.108;2023-05-14T08:24:27;8.37;;;6.90;;
3085;SDS011;52812;48.960;9.108;2023-05-14T08:26:53;7.63;;;6.37;;
3085;SDS011;52812;48.960;9.108;2023-05-14T08:29:19;8.13;;;6.93;;
3085;SDS011;52812;48.960;9.108;2023-05-14T08:31:45;6.90;;;6.20;;
3085;SDS011;52812;48.960;9.108;2023-05-14T08:34:11;13.63;;;7.10;;
3085;SDS011;52812;48.960;9.108;2023-05-14T08:36:37;8.67;;;6.43;;
3085;SDS011;52812;48.960;9.108;2023-05-14T08:39:03;7.77;;;6.20;;
3085;SDS011;52812;48.960;9.108;2023-05-14T08:41:28;9.27;;;6.97;;
3085;SDS011;52812;48.960;9.108;2023-05-14T08:46:26;8.67;;;6.83;;
3085;SDS011;52812;48.960;9.108;2023-05-14T08:49:07;8.73;;;7.07;;
3085;SDS011;52812;48.960;9.108;2023-05-14T08:51:44;10.17;;;7.20;;
3085;SDS011;52812;48.960;9.108;2023-05-14T08:54:16;10.23;;;7.33;;
3085;SDS011;52812;48.960;9.108;2023-05-14T08:56:43;11.20;;;7.30;;
3085;SDS011;52812;48.960;9.108;2023-05-14T08:59:12;10.07;;;7.53;;
3085;SDS011;52812;48.960;9.108;2023-05-14T09:01:40;11.30;;;8.00;;
3085;SDS011;52812;48.960;9.108;2023-05-14T09:04:10;10.37;;;7.30;;
3085;SDS011;52812;48.960;9.108;2023-05-14T09:06:36;10.70;;;7.47;;
3085;SDS011;52812;48.960;9.108;2023-05-14T09:09:03;11.80;;;7.90;;
3085;SDS011;52812;48.960;9.108;2023-05-14T09:11:29;10.23;;;7.27;;
3085;SDS011;52812;48.960;9.108;2023-05-14T09:13:54;10.47;;;7.77;;
3085;SDS011;52812;48.960;9.108;2023-05-14T09:16:20;9.40;;;7.20;;
3085;SDS011;52812;48.960;9.108;2023-05-14T09:18:47;11.37;;;7.80;;
3085;SDS011;52812;48.960;9.108;2023-05-14T09:21:13;9.27;;;7.30;;
3085;SDS011;52812;48.960;9.108;2023-05-14T09:23:43;9.63;;;7.27;;
3085;SDS011;52812;48.960;9.108;2023-05-14T09:26:09;10.27;;;6.70;;
3085;SDS011;52812;48.960;9.108;2023-05-14T09:28:38;9.67;;;7.30;;
3085;SDS011;52812;48.960;9.108;2023-05-14T09:31:05;10.80;;;7.80;;
3085;SDS011;52812;48.960;9.108;2023-05-14T09:33:31;8.10;;;6.83;;
3085;SDS011;52812;48.960;9.108;2023-05-14T09:35:57;11.10;;;8.23;;
3085;SDS011;52812;48.960;9.108;2023-05-14T09:38:31;11.17;;;7.23;;
3085;SDS011;52812;48.960;9.108;2023-05-14T09:40:58;10.53;;;7.90;;
3085;SDS011;52812;48.960;9.108;2023-05-14T09:43:25;8.90;;;6.90;;
3085;SDS011;52812;48.960;9.108;2023-05-14T09:45:51;9.53;;;7.50;;
3085;SDS011;52812;48.960;9.108;2023-05-14T09:48:17;11.67;;;7.70;;
3085;SDS011;52812;48.960;9.108;2023-05-14T09:50:43;10.30;;;8.10;;
3085;SDS011;52812;48.960;9.108;2023-05-14T09:53:10;8.73;;;7.03;;
3085;SDS011;52812;48.960;9.108;2023-05-14T09:55:37;8.97;;;7.00;;
3085;SDS011;52812;48.960;9.108;2023-05-14T09:58:03;10.50;;;7.80;;
3085;SDS011;52812;48.960;9.108;2023-05-14T10:00:33;10.37;;;7.40;;
3085;SDS011;52812;48.960;9.108;2023-05-14T10:03:01;11.80;;;8.40;;
3085;SDS011;52812;48.960;9.108;2023-05-14T10:05:31;9.93;;;7.97;;
3085;SDS011;52812;48.960;9.108;2023-05-14T10:08:44;10.27;;;7.90;;
3085;SDS011;52812;48.960;9.108;2023-05-14T10:10:57;10.17;;;7.53;;
3085;SDS011;52812;48.960;9.108;2023-05-14T10:13:30;9.10;;;7.40;;
3085;SDS011;52812;48.960;9.108;2023-05-14T10:16:10;8.50;;;7.20;;
3085;SDS011;52812;48.960;9.108;2023-05-14T10:18:44;11.00;;;7.20;;
3085;SDS011;52812;48.960;9.108;2023-05-14T10:21:15;8.80;;;6.80;;
3085;SDS011;52812;48.960;9.108;2023-05-14T10:23:45;9.50;;;7.43;;
3085;SDS011;52812;48.960;9.108;2023-05-14T10:26:13;9.63;;;7.07;;
3085;SDS011;52812;48.960;9.108;2023-05-14T10:28:39;10.47;;;7.27;;
3085;SDS011;52812;48.960;9.108;2023-05-14T10:31:07;8.80;;;7.00;;
3085;SDS011;52812;48.960;9.108;2023-05-14T10:33:44;9.13;;;7.10;;
3085;SDS011;52812;48.960;9.108;2023-05-14T10:36:14;10.93;;;7.80;;
3085;SDS011;52812;48.960;9.108;2023-05-14T10:38:41;10.57;;;7.30;;
3085;SDS011;52812;48.960;9.108;2023-05-14T10:41:11;9.43;;;6.87;;
3085;SDS011;52812;48.960;9.108;2023-05-14T10:43:40;8.83;;;6.60;;
3085;SDS011;52812;48.960;9.108;2023-05-14T10:46:07;9.40;;;7.50;;
3085;SDS011;52812;48.960;9.108;2023-05-14T10:48:34;9.40;;;7.40;;
3085;SDS011;52812;48.960;9.108;2023-05-14T10:51:01;9.90;;;6.77;;
3085;SDS011;52812;48.960;9.108;2023-05-14T10:53:31;9.53;;;6.80;;
3085;SDS011;52812;48.960;9.108;2023-05-14T10:56:05;9.00;;;6.77;;
3085;SDS011;52812;48.960;9.108;2023-05-14T10:58:36;9.30;;;7.30;;
3085;SDS011;52812;48.960;9.108;2023-05-14T11:01:02;9.30;;;7.30;;
3085;SDS011;52812;48.960;9.108;2023-05-14T11:03:30;8.20;;;6.40;;
3085;SDS011;52812;48.960;9.108;2023-05-14T11:06:02;10.73;;;6.73;;
3085;SDS011;52812;48.960;9.108;2023-05-14T11:08:29;9.40;;;6.47;;
3085;SDS011;52812;48.960;9.108;2023-05-14T11:10:56;7.03;;;5.80;;
3085;SDS011;52812;48.960;9.108;2023-05-14T11:13:22;9.07;;;6.90;;
3085;SDS011;52812;48.960;9.108;2023-05-14T11:15:50;7.67;;;6.60;;
3085;SDS011;52812;48.960;9.108;2023-05-14T11:18:25;7.17;;;5.73;;
3085;SDS011;52812;48.960;9.108;2023-05-14T11:20:52;7.20;;;5.83;;
3085;SDS011;52812;48.960;9.108;2023-05-14T11:23:22;7.20;;;5.47;;
3085;SDS011;52812;48.960;9.108;2023-05-14T11:25:50;6.10;;;5.47;;
3085;SDS011;52812;48.960;9.108;2023-05-14T11:28:18;7.30;;;5.37;;
3085;SDS011;52812;48.960;9.108;2023-05-14T11:30:47;7.20;;;5.80;;
3085;SDS011;52812;48.960;9.108;2023-05-14T11:33:14;6.33;;;5.17;;
3085;SDS011;52812;48.960;9.108;2023-05-14T11:35:41;10.40;;;5.43;;
3085;SDS011;52812;48.960;9.108;2023-05-14T11:38:19;8.43;;;5.50;;
3085;SDS011;52812;48.960;9.108;2023-05-14T11:40:51;8.00;;;6.17;;
3085;SDS011;52812;48.960;9.108;2023-05-14T11:43:18;6.03;;;5.23;;
3085;SDS011;52812;48.960;9.108;2023-05-14T11:45:47;6.77;;;5.50;;
3085;SDS011;52812;48.960;9.108;2023-05-14T11:48:16;7.17;;;5.80;;
3085;SDS011;52812;48.960;9.108;2023-05-14T11:50:52;8.53;;;5.60;;
3085;SDS011;52812;48.960;9.108;2023-05-14T11:53:24;7.00;;;5.43;;
3085;SDS011;52812;48.960;9.108;2023-05-14T11:55:55;7.40;;;5.70;;
3085;SDS011;52812;48.960;9.108;2023-05-14T11:58:24;6.93;;;6.10;;
3085;SDS011;52812;48.960;9.108;2023-05-14T12:00:50;7.43;;;5.90;;
3085;SDS011;52812;48.960;9.108;2023-05-14T12:03:17;7.10;;;5.60;;
3085;SDS011;52812;48.960;9.108;2023-05-14T12:05:56;7.20;;;5.73;;
3085;SDS011;52812;48.960;9.108;2023-05-14T12:08:29;6.57;;;5.67;;
3085;SDS011;52812;48.960;9.108;2023-05-14T12:10:56;6.87;;;5.47;;
3085;SDS011;52812;48.960;9.108;2023-05-14T12:13:29;5.93;;;5.33;;
3085;SDS011;52812;48.960;9.108;2023-05-14T12:15:56;5.33;;;4.83;;
3085;SDS011;52812;48.960;9.108;2023-05-14T12:18:23;7.00;;;5.63;;
3085;SDS011;52812;48.960;9.108;2023-05-14T12:20:50;6.90;;;5.90;;
3085;SDS011;52812;48.960;9.108;2023-05-14T12:23:16;6.10;;;4.93;;
3085;SDS011;52812;48.960;9.108;2023-05-14T12:25:53;7.90;;;5.90;;
3085;SDS011;52812;48.960;9.108;2023-05-14T12:28:18;6.03;;;5.43;;
3085;SDS011;52812;48.960;9.108;2023-05-14T12:30:45;7.20;;;5.90;;
3085;SDS011;52812;48.960;9.108;2023-05-14T12:33:11;7.60;;;6.00;;
3085;SDS011;52812;48.960;9.108;2023-05-14T12:35:38;6.67;;;5.30;;
3085;SDS011;52812;48.960;9.108;2023-05-14T12:38:03;5.60;;;4.93;;
3085;SDS011;52812;48.960;9.108;2023-05-14T12:40:29;6.27;;;5.43;;
3085;SDS011;52812;48.960;9.108;2023-05-14T12:42:55;6.70;;;5.20;;
3085;SDS011;52812;48.960;9.108;2023-05-14T12:45:21;5.50;;;4.63;;
3085;SDS011;52812;48.960;9.108;2023-05-14T12:47:46;7.30;;;5.07;;
3085;SDS011;52812;48.960;9.108;2023-05-14T12:50:12;5.53;;;4.87;;
3085;SDS011;52812;48.960;9.108;2023-05-14T12:52:37;5.67;;;5.07;;
3085;SDS011;52812;48.960;9.108;2023-05-14T12:55:03;6.50;;;4.97;;
3085;SDS011;52812;48.960;9.108;2023-05-14T12:57:29;5.50;;;4.70;;
3085;SDS011;52812;48.960;9.108;2023-05-14T12:59:56;6.10;;;4.97;;
3085;SDS011;52812;48.960;9.108;2023-05-14T13:02:21;5.27;;;4.43;;
3085;SDS011;52812;48.960;9.108;2023-05-14T13:04:47;6.37;;;4.90;;
3085;SDS011;52812;48.960;9.108;2023-05-14T13:07:12;5.83;;;5.00;;
3085;SDS011;52812;48.960;9.108;2023-05-14T13:09:38;6.10;;;5.00;;
3085;SDS011;52812;48.960;9.108;2023-05-14T13:12:04;6.60;;;5.07;;
3085;SDS011;52812;48.960;9.108;2023-05-14T13:14:30;6.37;;;5.07;;
3085;SDS011;52812;48.960;9.108;2023-05-14T13:16:56;5.83;;;4.57;;
3085;SDS011;52812;48.960;9.108;2023-05-14T13:19:21;6.03;;;4.40;;
3085;SDS011;52812;48.960;9.108;2023-05-14T13:21:47;5.20;;;4.20;;
3085;SDS011;52812;48.960;9.108;2023-05-14T13:24:12;6.23;;;4.83;;
3085;SDS011;52812;48.960;9.108;2023-05-14T13:26:38;5.50;;;4.40;;
3085;SDS011;52812;48.960;9.108;2023-05-14T13:29:03;5.03;;;4.23;;
3085;SDS011;52812;48.960;9.108;2023-05-14T13:31:29;5.60;;;5.03;;
3085;SDS011;52812;48.960;9.108;2023-05-14T13:33:54;9.30;;;5.40;;
3085;SDS011;52812;48.960;9.108;2023-05-14T13:36:22;4.80;;;4.30;;
3085;SDS011;52812;48.960;9.108;2023-05-14T13:38:47;5.30;;;4.63;;
3085;SDS011;52812;48.960;9.108;2023-05-14T13:41:13;6.23;;;5.60;;
3085;SDS011;52812;48.960;9.108;2023-05-14T13:43:38;7.10;;;5.37;;
3085;SDS011;52812;48.960;9.108;2023-05-14T13:46:04;6.77;;;5.40;;
3085;SDS011;52812;48.960;9.108;2023-05-14T13:48:30;5.60;;;4.73;;
3085;SDS011;52812;48.960;9.108;2023-05-14T13:50:56;5.30;;;4.80;;
3085;SDS011;52812;48.960;9.108;2023-05-14T13:53:23;6.37;;;5.13;;
3085;SDS011;52812;48.960;9.108;2023-05-14T13:55:49;5.97;;;5.03;;
3085;SDS011;52812;48.960;9.108;2023-05-14T13:58:20;7.27;;;5.00;;
3085;SDS011;52812;48.960;9.108;2023-05-14T14:00:47;5.83;;;5.07;;
3085;SDS011;52812;48.960;9.108;2023-05-14T14:03:12;5.97;;;4.90;;
3085;SDS011;52812;48.960;9.108;2023-05-14T14:05:38;5.50;;;4.90;;
3085;SDS011;52812;48.960;9.108;2023-05-14T14:08:03;5.90;;;4.30;;
3085;SDS011;52812;48.960;9.108;2023-05-14T14:10:29;5.37;;;4.17;;
3085;SDS011;52812;48.960;9.108;2023-05-14T14:12:55;5.13;;;4.43;;
3085;SDS011;52812;48.960;9.108;2023-05-14T14:15:21;4.60;;;4.00;;
3085;SDS011;52812;48.960;9.108;2023-05-14T14:17:46;5.13;;;4.63;;
3085;SDS011;52812;48.960;9.108;2023-05-14T14:20:12;5.00;;;4.50;;
3085;SDS011;52812;48.960;9.108;2023-05-14T14:22:38;4.87;;;4.20;;
3085;SDS011;52812;48.960;9.108;2023-05-14T14:25:04;5.90;;;4.87;;
3085;SDS011;52812;48.960;9.108;2023-05-14T14:27:32;5.97;;;5.03;;
3085;SDS011;52812;48.960;9.108;2023-05-14T14:30:02;5.77;;;5.03;;
3085;SDS011;52812;48.960;9.108;2023-05-14T14:32:39;7.67;;;4.77;;
3085;SDS011;52812;48.960;9.108;2023-05-14T14:35:09;4.97;;;4.47;;
3085;SDS011;52812;48.960;9.108;2023-05-14T14:37:36;5.87;;;4.73;;
3085;SDS011;52812;48.960;9.108;2023-05-14T14:40:02;5.87;;;4.37;;
3085;SDS011;52812;48.960;9.108;2023-05-14T14:42:27;5.20;;;4.60;;
3085;SDS011;52812;48.960;9.108;2023-05-14T14:44:53;4.90;;;4.40;;
3085;SDS011;52812;48.960;9.108;2023-05-14T14:47:18;4.50;;;3.90;;
3085;SDS011;52812;48.960;9.108;2023-05-14T14:49:44;4.27;;;3.83;;
3085;SDS011;52812;48.960;9.108;2023-05-14T14:52:10;4.47;;;4.07;;
3085;SDS011;52812;48.960;9.108;2023-05-14T14:54:35;4.77;;;4.20;;
3085;SDS011;52812;48.960;9.108;2023-05-14T14:57:01;5.00;;;4.10;;
3085;SDS011;52812;48.960;9.108;2023-05-14T14:59:26;5.13;;;4.27;;
3085;SDS011;52812;48.960;9.108;2023-05-14T15:01:52;4.90;;;4.30;;
3085;SDS011;52812;48.960;9.108;2023-05-14T15:04:17;5.23;;;4.07;;